LGZA/ZTH METAR and TAF weather

Enter ICAO airport designator
Station Type Date Time Source
LGZA METAR 2020/03/31 06:50 UTC NOAA

LGZA 310650Z 33005KT 9999 FEW020 16/10 Q1012


Station Type Date Time Source
LGZA Decoded METAR 2020/03/31 06:50 UTC NOAA

Zakinthos Airport , Greece (LGZA) 37-45N 020-53E
Mar 31, 2020 - 02:50 AM EDT / 2020.03.31 0650 UTC
Wind: from the NNW (330 degrees) at 6 MPH (5 KT):0
Visibility: greater than 7 mile(s):0
Sky conditions: mostly clear
Temperature: 60 F (16 C)
Dew Point: 50 F (10 C)
Relative Humidity: 67%
Pressure (altimeter): 29.88 in. Hg (1012 hPa)
ob: LGZA 310650Z 33005KT 9999 FEW020 16/10 Q1012
cycle: 7

Station Type Date Time Source
LGZA TAF 2011/11/25 15:06 UTC NOAA

TAF TAF LGZA 251400Z 2515/2603 02012KT 9999 FEW025 SCT035 BKN080 PROB30
TEMPO 2518/2603 8000 RA PROB30 2522/2603 5000 BR SCT010

Example: see airport list